Time;durP1;ratioP1;P1;durP2;ratioP2;P2;SDS_P1;SDS_P2;PMS_P1;PMS_P2;Temp;Humidity;BMP_temperature;BMP_pressure;BME280_temperature;BME280_humidity;BME280_pressure;Samples;Min_cycle;Max_cycle;Signal;HPM_P1;HPM_P2
2022/04/26 03:38:33;;;;;;;;;;;;;;;;;;4993359;28;20428;-64
2022/04/26 03:40:59;;;;;;;;;;;;;;;;;;4997430;28;19913;-65
2022/04/26 03:43:25;;;;;;;;;;;;;;;;;;4979159;28;19978;-65
2022/04/26 03:45:52;;;;;;;;;;;;;;;;;;4981361;28;19917;-65
2022/04/26 03:48:18;;;;;;;;;;;;;;;;;;5002839;28;19940;-65
2022/04/26 03:50:44;;;;;;;;;;;;;;;;;;4983766;28;20210;-64
2022/04/26 03:53:10;;;;;;;;;;;;;;;;;;5004940;28;20116;-70
2022/04/26 03:55:36;;;;;;;;;;;;;;;;;;4980491;28;20449;-63
2022/04/26 03:58:02;;;;;;;;;;;;;;;;;;5004156;28;21507;-65
2022/04/26 04:00:28;;;;;;;;;;;;;;;;;;4999843;28;19920;-65
2022/04/26 04:02:54;;;;;;;;;;;;;;;;;;4990846;28;20027;-64
2022/04/26 04:05:20;;;;;;;;;;;;;;;;;;4988762;28;19920;-64
2022/04/26 04:07:46;;;;;;;;;;;;;;;;;;5003139;28;19960;-64
2022/04/26 04:10:12;;;;;;;;;;;;;;;;;;4986562;28;20291;-64
2022/04/26 04:12:38;;;;;;;;;;;;;;;;;;4979020;28;20004;-64
2022/04/26 04:15:04;;;;;;;;;;;;;;;;;;5004587;28;20379;-64
2022/04/26 04:17:30;;;;;;;;;;;;;;;;;;5001155;28;19928;-64
2022/04/26 04:19:56;;;;;;;;;;;;;;;;;;4982247;28;20540;-64
2022/04/26 04:22:22;;;;;;;;;;;;;;;;;;4988082;28;19931;-64
2022/04/26 04:24:48;;;;;;;;;;;;;;;;;;4982234;28;19913;-63
2022/04/26 04:27:14;;;;;;;;;;;;;;;;;;4984599;28;20155;-64
2022/04/26 04:29:40;;;;;;;;;;;;;;;;;;4997431;28;19919;-63
2022/04/26 04:32:06;;;;;;;;;;;;;;;;;;4982363;28;20450;-63
2022/04/26 04:34:32;;;;;;;;;;;;;;;;;;4977319;28;19970;-65
2022/04/26 04:36:58;;;;;;;;;;;;;;;;;;5002615;28;19916;-65
2022/04/26 04:39:24;;;;;;;;;;;;;;;;;;4999113;28;20031;-65
2022/04/26 04:41:51;;;;;;;;;;;;;;;;;;5002273;28;20607;-62
2022/04/26 04:44:18;;;;;;;;;;;;;;;;;;4985983;28;20489;-63
2022/04/26 04:46:44;;;;;;;;;;;;;;;;;;4998375;28;19951;-63
2022/04/26 04:49:10;;;;;;;;;;;;;;;;;;4986506;28;19912;-65
2022/04/26 04:51:36;;;;;;;;;;;;;;;;;;4999697;28;19917;-65
2022/04/26 04:54:02;;;;;;;;;;;;;;;;;;4998651;28;20309;-65
2022/04/26 04:56:28;;;;;;;;;;;;;;;;;;4987844;28;21646;-70
2022/04/26 04:58:54;;;;;;;;;;;;;;;;;;5009759;28;20661;-70
2022/04/26 05:01:20;;;;;;;;;;;;;;;;;;4984540;28;19967;-70
2022/04/26 05:03:46;;;;;;;;;;;;;;;;;;4999597;28;19916;-69
2022/04/26 05:06:14;;;;;;;;;;;;;;;;;;5005872;28;19970;-70
2022/04/26 05:08:40;;;;;;;;;;;;;;;;;;4997094;28;19940;-71
2022/04/26 05:11:06;;;;;;;;;;;;;;;;;;5000344;28;20332;-71
2022/04/26 05:13:32;;;;;;;;;;;;;;;;;;5000777;28;19912;-71
2022/04/26 05:15:58;;;;;;;;;;;;;;;;;;5000996;28;20669;-71
2022/04/26 05:18:24;;;;;;;;;;;;;;;;;;4978992;28;19913;-70
2022/04/26 05:20:50;;;;;;;;;;;;;;;;;;5001511;28;20309;-71
2022/04/26 05:26:00;;;;;;;;;;;;;;;;;;5004850;28;19955;-70
2022/04/26 05:28:26;;;;;;;;;;;;;;;;;;4999894;28;19913;-71
2022/04/26 05:30:52;;;;;;;;;;;;;;;;;;5003266;28;19996;-70
2022/04/26 05:33:18;;;;;;;;;;;;;;;;;;5006338;28;19949;-70
2022/04/26 05:35:44;;;;;;;;;;;;;;;;;;4998079;28;19947;-70
2022/04/26 05:38:14;;;;;;;;;;;;;;;;;;5001494;28;20154;-70
2022/04/26 05:40:40;;;;;;;;;;;;;;;;;;4977780;28;19956;-72
2022/04/26 05:43:06;;;;;;;;;;;;;;;;;;5000923;28;20551;-71
2022/04/26 05:45:32;;;;;;;;;;;;;;;;;;4999420;28;19920;-72
2022/04/26 05:47:58;;;;;;;;;;;;;;;;;;5013297;28;21069;-71
2022/04/26 05:50:24;;;;;;;;;;;;;;;;;;4997992;28;19913;-72
2022/04/26 05:52:50;;;;;;;;;;;;;;;;;;5001690;28;19944;-71
2022/04/26 05:55:16;;;;;;;;;;;;;;;;;;5006146;28;19943;-72
2022/04/26 05:57:42;;;;;;;;;;;;;;;;;;4984909;28;20394;-71
2022/04/26 06:00:08;;;;;;;;;;;;;;;;;;5003208;28;20016;-71
2022/04/26 06:02:34;;;;;;;;;;;;;;;;;;5002100;28;19925;-72
2022/04/26 06:05:00;;;;;;;;;;;;;;;;;;5006291;28;20286;-71
2022/04/26 06:07:27;;;;;;;;;;;;;;;;;;4998614;28;20225;-72
2022/04/26 06:09:54;;;;;;;;;;;;;;;;;;5003543;28;20523;-71
2022/04/26 06:12:20;;;;;;;;;;;;;;;;;;4998827;28;19971;-70
2022/04/26 06:14:46;;;;;;;;;;;;;;;;;;4988471;28;20602;-70
2022/04/26 06:17:12;;;;;;;;;;;;;;;;;;5007789;28;20266;-72
2022/04/26 06:19:38;;;;;;;;;;;;;;;;;;5000298;28;19913;-72
2022/04/26 06:22:04;;;;;;;;;;;;;;;;;;5005616;28;19944;-72
2022/04/26 06:24:30;;;;;;;;;;;;;;;;;;5000655;28;19963;-72
2022/04/26 06:26:56;;;;;;;;;;;;;;;;;;4990792;28;20007;-72
2022/04/26 06:29:22;;;;;;;;;;;;;;;;;;5010391;28;20003;-72
2022/04/26 06:31:48;;;;;;;;;;;;;;;;;;5006600;28;19918;-71
2022/04/26 06:34:14;;;;;;;;;;;;;;;;;;4985791;28;20034;-71
2022/04/26 06:36:41;;;;;;;;;;;;;;;;;;5002375;28;20455;-70
2022/04/26 06:39:06;;;;;;;;;;;;;;;;;;5010794;28;19920;-72
2022/04/26 06:41:33;;;;;;;;;;;;;;;;;;5004498;28;21554;-71
2022/04/26 06:43:59;;;;;;;;;;;;;;;;;;5009385;28;19920;-71
2022/04/26 06:46:25;;;;;;;;;;;;;;;;;;4982306;28;19912;-73
2022/04/26 06:48:51;;;;;;;;;;;;;;;;;;5006748;28;19913;-72
2022/04/26 06:51:17;;;;;;;;;;;;;;;;;;4998053;28;19994;-71
2022/04/26 06:53:43;;;;;;;;;;;;;;;;;;4996620;28;21877;-71
2022/04/26 06:56:09;;;;;;;;;;;;;;;;;;4983735;28;19990;-71
2022/04/26 06:58:35;;;;;;;;;;;;;;;;;;4967829;28;340261;-71
2022/04/26 07:01:01;;;;;;;;;;;;;;;;;;5003611;28;19914;-71
2022/04/26 07:03:26;;;;;;;;;;;;;;;;;;5003852;28;19920;-71
2022/04/26 07:05:53;;;;;;;;;;;;;;;;;;5011981;28;19913;-71
2022/04/26 07:08:19;;;;;;;;;;;;;;;;;;5010239;28;20534;-71
2022/04/26 07:10:45;;;;;;;;;;;;;;;;;;4987437;28;20351;-71
2022/04/26 07:13:15;;;;;;;;;;;;;;;;;;4992244;28;19920;-71
2022/04/26 07:15:41;;;;;;;;;;;;;;;;;;5001035;28;20015;-71
2022/04/26 07:18:07;;;;;;;;;;;;;;;;;;4993423;28;21066;-71
2022/04/26 07:20:33;;;;;;;;;;;;;;;;;;5002389;28;19949;-72
2022/04/26 07:23:00;;;;;;;;;;;;;;;;;;5004457;28;20019;-72
2022/04/26 07:25:26;;;;;;;;;;;;;;;;;;4983813;28;20001;-72
2022/04/26 07:27:52;;;;;;;;;;;;;;;;;;5001323;28;20016;-72
2022/04/26 07:30:18;;;;;;;;;;;;;;;;;;5000196;28;19967;-70
2022/04/26 07:35:29;;;;;;;;;;;;;;;;;;4999306;28;19923;-71
2022/04/26 07:37:55;;;;;;;;;;;;;;;;;;5002461;28;19917;-71
2022/04/26 07:40:21;;;;;;;;;;;;;;;;;;5005347;28;20039;-71
2022/04/26 07:42:47;;;;;;;;;;;;;;;;;;4999322;28;19983;-71
2022/04/26 07:45:13;;;;;;;;;;;;;;;;;;5001094;28;19917;-72
2022/04/26 07:47:39;;;;;;;;;;;;;;;;;;5004825;28;19913;-71
2022/04/26 07:50:05;;;;;;;;;;;;;;;;;;4999123;28;20370;-71
2022/04/26 07:52:31;;;;;;;;;;;;;;;;;;5001441;28;19913;-71
2022/04/26 07:54:57;;;;;;;;;;;;;;;;;;5001368;28;20239;-71
2022/04/26 07:57:23;;;;;;;;;;;;;;;;;;4983992;28;21157;-70
2022/04/26 07:59:49;;;;;;;;;;;;;;;;;;4969081;28;19991;-71
2022/04/26 08:02:15;;;;;;;;;;;;;;;;;;4983463;28;19913;-71
2022/04/26 08:04:41;;;;;;;;;;;;;;;;;;4977270;28;20725;-71
2022/04/26 08:07:08;;;;;;;;;;;;;;;;;;4997446;28;19917;-71
2022/04/26 08:09:36;;;;;;;;;;;;;;;;;;4991747;28;19908;-70
2022/04/26 08:12:02;;;;;;;;;;;;;;;;;;4996751;28;19912;-71
2022/04/26 08:14:29;;;;;;;;;;;;;;;;;;4993345;28;19955;-69
2022/04/26 08:16:55;;;;;;;;;;;;;;;;;;4981558;28;19959;-69
2022/04/26 08:19:21;;;;;;;;;;;;;;;;;;4934831;28;19936;-69
2022/04/26 08:21:47;;;;;;;;;;;;;;;;;;5000530;28;19913;-69
2022/04/26 08:29:42;;;;;;;;;;;;;;;;;;5001292;28;19916;-71
2022/04/26 08:32:08;;;;;;;;;;;;;;;;;;4983674;28;19951;-71
2022/04/26 08:34:34;;;;;;;;;;;;;;;;;;4987106;28;19917;-71
2022/04/26 08:37:00;;;;;;;;;;;;;;;;;;5003930;28;19923;-71
2022/04/26 08:39:26;;;;;;;;;;;;;;;;;;5001769;28;19933;-71
2022/04/26 08:41:52;;;;;;;;;;;;;;;;;;4987396;28;19965;-71
2022/04/26 08:44:18;;;;;;;;;;;;;;;;;;4980892;28;19917;-71
2022/04/26 08:52:15;;;;;;;;;;;;;;;;;;5000916;28;19919;-69
2022/04/26 08:54:41;;;;;;;;;;;;;;;;;;4939839;28;21398;-69
2022/04/26 08:57:08;;;;;;;;;;;;;;;;;;4952593;28;19983;-70
2022/04/26 08:59:34;;;;;;;;;;;;;;;;;;4928736;28;19917;-70
2022/04/26 09:02:00;;;;;;;;;;;;;;;;;;4964332;28;20020;-70
2022/04/26 09:04:26;;;;;;;;;;;;;;;;;;4954551;28;19913;-70
2022/04/26 09:06:53;;;;;;;;;;;;;;;;;;4935722;28;21084;-69
2022/04/26 09:09:21;;;;;;;;;;;;;;;;;;4955688;28;19913;-72
2022/04/26 09:11:47;;;;;;;;;;;;;;;;;;4944579;28;21431;-70
2022/04/26 09:14:13;;;;;;;;;;;;;;;;;;4964042;28;21863;-69
2022/04/26 09:16:39;;;;;;;;;;;;;;;;;;4962128;28;20450;-63
2022/04/26 09:19:08;;;;;;;;;;;;;;;;;;4965474;28;19924;-63
2022/04/26 09:21:34;;;;;;;;;;;;;;;;;;4928444;28;20326;-63
2022/04/26 09:24:00;;;;;;;;;;;;;;;;;;4935758;28;19913;-63
2022/04/26 09:26:27;;;;;;;;;;;;;;;;;;4955806;28;20713;-63
2022/04/26 09:28:53;;;;;;;;;;;;;;;;;;4964143;28;19913;-66
2022/04/26 09:31:19;;;;;;;;;;;;;;;;;;4977922;28;20317;-68
2022/04/26 09:33:49;;;;;;;;;;;;;;;;;;4995459;28;19984;-66
2022/04/26 09:36:15;;;;;;;;;;;;;;;;;;4983918;28;19921;-66
2022/04/26 09:38:41;;;;;;;;;;;;;;;;;;4979157;28;19919;-66
2022/04/26 09:41:08;;;;;;;;;;;;;;;;;;4985103;28;19917;-66
2022/04/26 09:43:34;;;;;;;;;;;;;;;;;;4984744;28;19917;-66
2022/04/26 09:46:01;;;;;;;;;;;;;;;;;;4978356;28;20018;-66
2022/04/26 09:48:27;;;;;;;;;;;;;;;;;;4998670;28;20007;-66
2022/04/26 09:50:52;;;;;;;;;;;;;;;;;;4981266;28;19920;-66
2022/04/26 09:53:18;;;;;;;;;;;;;;;;;;5002338;28;19983;-66
2022/04/26 09:55:45;;;;;;;;;;;;;;;;;;4993956;28;20470;-66
2022/04/26 09:58:10;;;;;;;;;;;;;;;;;;4999142;28;20378;-66
2022/04/26 10:00:39;;;;;;;;;;;;;;;;;;4995118;28;19917;-66
2022/04/26 10:03:05;;;;;;;;;;;;;;;;;;5000999;28;19917;-66
2022/04/26 10:05:31;;;;;;;;;;;;;;;;;;4999444;28;19958;-66
2022/04/26 10:07:57;;;;;;;;;;;;;;;;;;5000712;28;19925;-67
2022/04/26 10:10:23;;;;;;;;;;;;;;;;;;5003136;28;19942;-66
2022/04/26 10:13:35;;;;;;;;;;;;;;;;;;5000807;28;19919;-66
2022/04/26 10:15:35;;;;;;;;;;;;;;;;;;4984471;28;19921;-66
2022/04/26 10:18:01;;;;;;;;;;;;;;;;;;5001703;28;19913;-67
2022/04/26 10:20:28;;;;;;;;;;;;;;;;;;4997557;28;19956;-66
2022/04/26 10:22:54;;;;;;;;;;;;;;;;;;4999555;28;19948;-66
2022/04/26 10:25:21;;;;;;;;;;;;;;;;;;5004657;28;20000;-66
2022/04/26 10:27:47;;;;;;;;;;;;;;;;;;4982783;28;20450;-67
2022/04/26 10:30:13;;;;;;;;;;;;;;;;;;5000935;28;19998;-66
2022/04/26 10:32:39;;;;;;;;;;;;;;;;;;4995275;28;20423;-66
2022/04/26 10:35:05;;;;;;;;;;;;;;;;;;4999185;28;20228;-67
2022/04/26 10:37:32;;;;;;;;;;;;;;;;;;4995118;28;20319;-67
2022/04/26 10:39:58;;;;;;;;;;;;;;;;;;4982637;28;19913;-66
2022/04/26 10:42:24;;;;;;;;;;;;;;;;;;4982086;28;19969;-66
2022/04/26 10:44:50;;;;;;;;;;;;;;;;;;5006215;28;19921;-66
2022/04/26 10:47:18;;;;;;;;;;;;;;;;;;4985031;28;20463;-68
2022/04/26 10:49:45;;;;;;;;;;;;;;;;;;4984636;28;20773;-66
2022/04/26 10:52:13;;;;;;;;;;;;;;;;;;5000436;28;19964;-66
2022/04/26 10:54:39;;;;;;;;;;;;;;;;;;4976574;28;19921;-66
2022/04/26 10:57:05;;;;;;;;;;;;;;;;;;4987328;28;20299;-65
2022/04/26 10:59:31;;;;;;;;;;;;;;;;;;5000455;28;19913;-66
2022/04/26 11:01:57;;;;;;;;;;;;;;;;;;4984441;28;19913;-66
2022/04/26 11:04:23;;;;;;;;;;;;;;;;;;4993262;28;19913;-65
2022/04/26 11:06:50;;;;;;;;;;;;;;;;;;5002319;28;19980;-67
2022/04/26 11:09:16;;;;;;;;;;;;;;;;;;5012875;28;19913;-66
2022/04/26 11:11:42;;;;;;;;;;;;;;;;;;4993396;28;19975;-66
2022/04/26 11:14:09;;;;;;;;;;;;;;;;;;4992392;28;20538;-66
2022/04/26 11:16:35;;;;;;;;;;;;;;;;;;4982759;28;20438;-66
2022/04/26 11:19:01;;;;;;;;;;;;;;;;;;5005704;28;19912;-67
2022/04/26 11:21:27;;;;;;;;;;;;;;;;;;4986860;28;19947;-66
2022/04/26 11:29:22;;;;;;;;;;;;;;;;;;5006942;28;19920;-67
2022/04/26 11:31:48;;;;;;;;;;;;;;;;;;5001279;28;20405;-67
2022/04/26 11:34:14;;;;;;;;;;;;;;;;;;4988435;28;19982;-67
2022/04/26 11:36:40;;;;;;;;;;;;;;;;;;4995885;28;19938;-65
2022/04/26 11:39:06;;;;;;;;;;;;;;;;;;4985328;28;19913;-64
2022/04/26 11:41:32;;;;;;;;;;;;;;;;;;4997025;28;20363;-64
2022/04/26 11:43:58;;;;;;;;;;;;;;;;;;5002793;28;19917;-64
2022/04/26 11:46:24;;;;;;;;;;;;;;;;;;5000900;28;19913;-64
2022/04/26 11:48:51;;;;;;;;;;;;;;;;;;4979553;28;20481;-64
2022/04/26 11:51:17;;;;;;;;;;;;;;;;;;4991093;28;20265;-64
2022/04/26 11:53:43;;;;;;;;;;;;;;;;;;5004938;28;24546;-65
2022/04/26 11:56:10;;;;;;;;;;;;;;;;;;5000935;28;20039;-64
2022/04/26 11:58:36;;;;;;;;;;;;;;;;;;5004095;28;19924;-65
2022/04/26 12:01:10;;;;;;;;;;;;;;;;;;5007744;28;20334;-64
2022/04/26 12:03:38;;;;;;;;;;;;;;;;;;5003516;28;19917;-64
2022/04/26 12:06:04;;;;;;;;;;;;;;;;;;4993123;28;19917;-64
2022/04/26 12:08:30;;;;;;;;;;;;;;;;;;5002700;28;19924;-64
2022/04/26 12:10:56;;;;;;;;;;;;;;;;;;5005554;28;19917;-64
2022/04/26 12:13:22;;;;;;;;;;;;;;;;;;4993596;28;19967;-64
2022/04/26 12:15:48;;;;;;;;;;;;;;;;;;4982120;28;19921;-67
2022/04/26 12:18:14;;;;;;;;;;;;;;;;;;4989100;28;19920;-68
2022/04/26 12:20:40;;;;;;;;;;;;;;;;;;4984113;28;20568;-67
2022/04/26 12:23:07;;;;;;;;;;;;;;;;;;5007963;28;20313;-67
2022/04/26 12:25:34;;;;;;;;;;;;;;;;;;4988943;28;19925;-67
2022/04/26 12:28:00;;;;;;;;;;;;;;;;;;5000329;28;19922;-66
2022/04/26 12:30:26;;;;;;;;;;;;;;;;;;4988147;28;19913;-66
2022/04/26 12:32:52;;;;;;;;;;;;;;;;;;4991516;28;20309;-67
2022/04/26 12:35:20;;;;;;;;;;;;;;;;;;5016534;28;19955;-66
2022/04/26 12:37:46;;;;;;;;;;;;;;;;;;5008882;28;20331;-66
2022/04/26 12:40:14;;;;;;;;;;;;;;;;;;5016654;28;19920;-69
2022/04/26 12:42:42;;;;;;;;;;;;;;;;;;4998080;28;19919;-69
2022/04/26 12:45:08;;;;;;;;;;;;;;;;;;4986988;28;20336;-69
2022/04/26 12:50:28;;;;;;;;;;;;;;;;;;5004688;28;20161;-70
2022/04/26 12:52:54;;;;;;;;;;;;;;;;;;4986820;28;19967;-69
2022/04/26 12:55:20;;;;;;;;;;;;;;;;;;4981781;28;19964;-72
2022/04/26 12:57:46;;;;;;;;;;;;;;;;;;4995862;28;20029;-69
2022/04/26 13:00:13;;;;;;;;;;;;;;;;;;5002193;28;19940;-70
2022/04/26 13:02:38;;;;;;;;;;;;;;;;;;4988718;28;19948;-69
2022/04/26 13:05:04;;;;;;;;;;;;;;;;;;5000231;28;20235;-69
2022/04/26 13:07:33;;;;;;;;;;;;;;;;;;4983434;28;20412;-71
2022/04/26 13:09:59;;;;;;;;;;;;;;;;;;4984801;28;20484;-71
2022/04/26 13:12:28;;;;;;;;;;;;;;;;;;4998436;28;19914;-70
2022/04/26 13:14:54;;;;;;;;;;;;;;;;;;4982777;28;20261;-70
2022/04/26 13:17:21;;;;;;;;;;;;;;;;;;4999674;28;20312;-70
2022/04/26 13:19:47;;;;;;;;;;;;;;;;;;4996971;28;20290;-69
2022/04/26 13:22:15;;;;;;;;;;;;;;;;;;4986210;28;19917;-70
2022/04/26 13:24:41;;;;;;;;;;;;;;;;;;4982423;28;20761;-71
2022/04/26 13:27:07;;;;;;;;;;;;;;;;;;4979058;28;20465;-71
2022/04/26 13:29:33;;;;;;;;;;;;;;;;;;4995437;28;19912;-69
2022/04/26 13:31:59;;;;;;;;;;;;;;;;;;5002625;28;19917;-70
2022/04/26 13:34:34;;;;;;;;;;;;;;;;;;4980464;28;19921;-69
2022/04/26 13:37:00;;;;;;;;;;;;;;;;;;4983326;28;19956;-70
2022/04/26 13:39:26;;;;;;;;;;;;;;;;;;4998821;28;19919;-68
2022/04/26 13:41:52;;;;;;;;;;;;;;;;;;4992188;28;20126;-65
2022/04/26 13:44:21;;;;;;;;;;;;;;;;;;4988243;28;19912;-66
2022/04/26 13:46:48;;;;;;;;;;;;;;;;;;5000776;28;19920;-63
2022/04/26 13:49:14;;;;;;;;;;;;;;;;;;4984238;28;19913;-63
2022/04/26 13:51:40;;;;;;;;;;;;;;;;;;4980049;28;20331;-64
2022/04/26 13:54:06;;;;;;;;;;;;;;;;;;4983453;28;20003;-64
2022/04/26 13:56:32;;;;;;;;;;;;;;;;;;4996508;28;20038;-65
2022/04/26 13:58:58;;;;;;;;;;;;;;;;;;5001353;28;19924;-64
2022/04/26 14:01:24;;;;;;;;;;;;;;;;;;4983711;28;20164;-63
2022/04/26 14:03:50;;;;;;;;;;;;;;;;;;4986746;28;20157;-65
2022/04/26 14:06:21;;;;;;;;;;;;;;;;;;4988880;28;20341;-65
2022/04/26 14:08:49;;;;;;;;;;;;;;;;;;4984401;28;20350;-66
2022/04/26 14:11:14;;;;;;;;;;;;;;;;;;4980734;28;19914;-67
2022/04/26 14:21:55;;;;;;;;;;;;;;;;;;5008661;28;20008;-67
2022/04/26 14:24:21;;;;;;;;;;;;;;;;;;5009932;28;19913;-69
2022/04/26 14:26:49;;;;;;;;;;;;;;;;;;5011133;28;20614;-67
2022/04/26 14:29:15;;;;;;;;;;;;;;;;;;4993209;28;20394;-65
2022/04/26 14:31:41;;;;;;;;;;;;;;;;;;4982127;28;20521;-67
2022/04/26 14:34:07;;;;;;;;;;;;;;;;;;5006787;28;19913;-67
2022/04/26 14:36:33;;;;;;;;;;;;;;;;;;4995923;28;20130;-66
2022/04/26 14:38:59;;;;;;;;;;;;;;;;;;5003322;28;19920;-65
2022/04/26 14:41:26;;;;;;;;;;;;;;;;;;5001051;28;20257;-65
2022/04/26 14:43:52;;;;;;;;;;;;;;;;;;5011464;28;20035;-66
2022/04/26 14:46:18;;;;;;;;;;;;;;;;;;4989637;28;19918;-66
2022/04/26 14:48:44;;;;;;;;;;;;;;;;;;5009644;28;20645;-64
2022/04/26 14:51:11;;;;;;;;;;;;;;;;;;4988307;28;20911;-64
2022/04/26 14:53:37;;;;;;;;;;;;;;;;;;4980883;28;20441;-64
2022/04/26 14:56:04;;;;;;;;;;;;;;;;;;5005492;28;20363;-64
2022/04/26 14:58:30;;;;;;;;;;;;;;;;;;5008717;28;19920;-63
2022/04/26 15:00:57;;;;;;;;;;;;;;;;;;5004066;28;20272;-64
2022/04/26 15:03:23;;;;;;;;;;;;;;;;;;5008250;28;20178;-64
2022/04/26 15:05:49;;;;;;;;;;;;;;;;;;4985166;28;20449;-66
2022/04/26 15:11:00;;;;;;;;;;;;;;;;;;5006420;28;20541;-69
2022/04/26 15:18:55;;;;;;;;;;;;;;;;;;4998819;28;19939;-66
2022/04/26 15:21:24;;;;;;;;;;;;;;;;;;5006658;28;19924;-69
2022/04/26 15:23:49;;;;;;;;;;;;;;;;;;4986884;28;19913;-67
2022/04/26 15:26:16;;;;;;;;;;;;;;;;;;5008056;28;19913;-66
2022/04/26 15:28:42;;;;;;;;;;;;;;;;;;4978417;28;19913;-66
2022/04/26 15:31:08;;;;;;;;;;;;;;;;;;5001787;28;19920;-65
2022/04/26 15:33:34;;;;;;;;;;;;;;;;;;4979863;28;19924;-64
2022/04/26 15:36:00;;;;;;;;;;;;;;;;;;4986724;28;19955;-64
2022/04/26 15:38:27;;;;;;;;;;;;;;;;;;4981098;28;19913;-65
2022/04/26 15:40:53;;;;;;;;;;;;;;;;;;5005131;28;19936;-66
2022/04/26 15:43:19;;;;;;;;;;;;;;;;;;5005193;28;19913;-74
2022/04/26 15:45:45;;;;;;;;;;;;;;;;;;4999028;28;20355;-76
2022/04/26 15:48:12;;;;;;;;;;;;;;;;;;5003539;28;20260;-72
2022/04/26 15:50:40;;;;;;;;;;;;;;;;;;4977588;28;19924;-70
2022/04/26 15:53:06;;;;;;;;;;;;;;;;;;4946462;28;19959;-72
2022/04/26 15:55:32;;;;;;;;;;;;;;;;;;4941857;28;20359;-72
2022/04/26 15:57:58;;;;;;;;;;;;;;;;;;4950392;28;20327;-71
2022/04/26 16:00:26;;;;;;;;;;;;;;;;;;4959124;28;21243;-74
2022/04/26 16:02:53;;;;;;;;;;;;;;;;;;4960354;28;20015;-74
2022/04/26 16:05:19;;;;;;;;;;;;;;;;;;4945965;28;19920;-74
2022/04/26 16:07:49;;;;;;;;;;;;;;;;;;4961996;28;20481;-73
2022/04/26 16:21:14;;;;;;;;;;;;;;;;;;4964824;28;19943;-71
2022/04/26 16:23:40;;;;;;;;;;;;;;;;;;4953872;28;20643;-72
2022/04/26 16:26:06;;;;;;;;;;;;;;;;;;4961479;28;20394;-71
2022/04/26 16:28:32;;;;;;;;;;;;;;;;;;4953933;28;20006;-68
2022/04/26 16:30:58;;;;;;;;;;;;;;;;;;4988530;28;19917;-69
2022/04/26 16:33:24;;;;;;;;;;;;;;;;;;4994849;28;19923;-69
2022/04/26 16:35:50;;;;;;;;;;;;;;;;;;4991325;28;20328;-69
2022/04/26 16:38:17;;;;;;;;;;;;;;;;;;4990529;28;20377;-66
2022/04/26 16:40:44;;;;;;;;;;;;;;;;;;4986759;28;20319;-69
2022/04/26 16:43:10;;;;;;;;;;;;;;;;;;4991372;28;19951;-69
2022/04/26 16:45:36;;;;;;;;;;;;;;;;;;4970261;28;19912;-69
2022/04/26 16:48:02;;;;;;;;;;;;;;;;;;4971996;28;19913;-68
2022/04/26 16:50:28;;;;;;;;;;;;;;;;;;4987666;28;19963;-71
2022/04/26 16:52:54;;;;;;;;;;;;;;;;;;4989192;28;19913;-71
2022/04/26 16:55:21;;;;;;;;;;;;;;;;;;4993240;28;20023;-71
2022/04/26 16:57:47;;;;;;;;;;;;;;;;;;4956545;28;19922;-69
2022/04/26 17:00:14;;;;;;;;;;;;;;;;;;4971034;28;19924;-70
2022/04/26 17:02:40;;;;;;;;;;;;;;;;;;4952320;28;19983;-69
2022/04/26 17:05:06;;;;;;;;;;;;;;;;;;4961284;28;19913;-69
2022/04/26 17:07:33;;;;;;;;;;;;;;;;;;4968308;28;20467;-69
2022/04/26 17:09:59;;;;;;;;;;;;;;;;;;4971498;28;19925;-69
2022/04/26 17:12:26;;;;;;;;;;;;;;;;;;4980061;28;20352;-69
2022/04/26 17:14:53;;;;;;;;;;;;;;;;;;4986537;28;20292;-69
2022/04/26 17:17:21;;;;;;;;;;;;;;;;;;4982611;28;19920;-69
2022/04/26 17:19:47;;;;;;;;;;;;;;;;;;4963927;28;20437;-70
2022/04/26 17:22:13;;;;;;;;;;;;;;;;;;4967770;28;20414;-69
2022/04/26 17:27:24;;;;;;;;;;;;;;;;;;4984574;28;20507;-69
2022/04/26 17:29:50;;;;;;;;;;;;;;;;;;4981661;28;19936;-69
2022/04/26 17:32:16;;;;;;;;;;;;;;;;;;4967869;28;19913;-69
2022/04/26 17:34:42;;;;;;;;;;;;;;;;;;4980120;28;19917;-69
2022/04/26 17:37:08;;;;;;;;;;;;;;;;;;4964460;28;19948;-69
2022/04/26 17:39:34;;;;;;;;;;;;;;;;;;4965252;28;19909;-69
2022/04/26 17:42:00;;;;;;;;;;;;;;;;;;4984371;28;19913;-69
2022/04/26 17:44:26;;;;;;;;;;;;;;;;;;4965261;28;20370;-69
2022/04/26 17:46:52;;;;;;;;;;;;;;;;;;4981370;28;19920;-69
2022/04/26 17:49:18;;;;;;;;;;;;;;;;;;4985728;28;19913;-70
2022/04/26 17:51:44;;;;;;;;;;;;;;;;;;4962578;28;22602;-69
2022/04/26 17:56:55;;;;;;;;;;;;;;;;;;4985737;28;19927;-69
2022/04/26 17:59:21;;;;;;;;;;;;;;;;;;4997954;28;20446;-69
2022/04/26 18:01:47;;;;;;;;;;;;;;;;;;4982845;28;20045;-69
2022/04/26 18:04:13;;;;;;;;;;;;;;;;;;5008810;28;19917;-70
2022/04/26 18:06:39;;;;;;;;;;;;;;;;;;5000404;28;20080;-69
2022/04/26 18:09:05;;;;;;;;;;;;;;;;;;4983914;28;20092;-70
2022/04/26 18:11:32;;;;;;;;;;;;;;;;;;4993497;28;19912;-70
2022/04/26 18:13:58;;;;;;;;;;;;;;;;;;5000013;28;19971;-70
2022/04/26 18:16:24;;;;;;;;;;;;;;;;;;4983419;28;20363;-70
2022/04/26 18:18:50;;;;;;;;;;;;;;;;;;4982272;28;20430;-70
2022/04/26 18:21:19;;;;;;;;;;;;;;;;;;5000529;28;20769;-70
2022/04/26 18:23:45;;;;;;;;;;;;;;;;;;4995932;28;20401;-70
2022/04/26 18:26:11;;;;;;;;;;;;;;;;;;4996418;28;20762;-70
2022/04/26 18:28:37;;;;;;;;;;;;;;;;;;4993409;28;19913;-70
2022/04/26 18:31:03;;;;;;;;;;;;;;;;;;4991902;28;19952;-70
2022/04/26 18:33:29;;;;;;;;;;;;;;;;;;4994811;28;19921;-70
2022/04/26 18:35:55;;;;;;;;;;;;;;;;;;4981226;28;19920;-70
2022/04/26 18:38:22;;;;;;;;;;;;;;;;;;4998415;28;19948;-70
2022/04/26 18:40:48;;;;;;;;;;;;;;;;;;4997629;28;19912;-70
2022/04/26 18:43:14;;;;;;;;;;;;;;;;;;4997929;28;20358;-70
2022/04/26 18:45:40;;;;;;;;;;;;;;;;;;4979414;28;19920;-70
2022/04/26 18:48:06;;;;;;;;;;;;;;;;;;5001505;28;20726;-70
2022/04/26 18:50:32;;;;;;;;;;;;;;;;;;4995720;28;19917;-71
2022/04/26 18:52:58;;;;;;;;;;;;;;;;;;4981483;28;19913;-70
2022/04/26 18:55:24;;;;;;;;;;;;;;;;;;4984016;28;19917;-70
2022/04/26 18:57:50;;;;;;;;;;;;;;;;;;4983591;28;19976;-70
2022/04/26 19:00:19;;;;;;;;;;;;;;;;;;5005884;28;19916;-70
2022/04/26 19:02:45;;;;;;;;;;;;;;;;;;4985789;28;20803;-69
2022/04/26 19:05:11;;;;;;;;;;;;;;;;;;4983591;28;20386;-70
2022/04/26 19:07:38;;;;;;;;;;;;;;;;;;5007068;28;19921;-70
2022/04/26 19:12:49;;;;;;;;;;;;;;;;;;5012064;28;19921;-71
2022/04/26 19:15:15;;;;;;;;;;;;;;;;;;5012224;28;19965;-70
2022/04/26 19:17:41;;;;;;;;;;;;;;;;;;5009481;28;19913;-69
2022/04/26 19:20:07;;;;;;;;;;;;;;;;;;4996370;28;19952;-70
2022/04/26 19:22:33;;;;;;;;;;;;;;;;;;5010759;28;19913;-68
2022/04/26 19:24:59;;;;;;;;;;;;;;;;;;5014151;28;20443;-69
2022/04/26 19:27:25;;;;;;;;;;;;;;;;;;5013241;28;19920;-69
2022/04/26 19:29:51;;;;;;;;;;;;;;;;;;5015874;28;19913;-69
2022/04/26 19:32:17;;;;;;;;;;;;;;;;;;5015333;28;20253;-70
2022/04/26 19:34:43;;;;;;;;;;;;;;;;;;4972179;28;19917;-69
2022/04/26 19:37:09;;;;;;;;;;;;;;;;;;4985655;28;19924;-70
2022/04/26 19:39:35;;;;;;;;;;;;;;;;;;4985154;28;19989;-69
2022/04/26 19:42:01;;;;;;;;;;;;;;;;;;4984770;28;19955;-71
2022/04/26 19:44:27;;;;;;;;;;;;;;;;;;5002112;28;20624;-70
2022/04/26 19:46:58;;;;;;;;;;;;;;;;;;5004167;28;19959;-70
2022/04/26 19:49:24;;;;;;;;;;;;;;;;;;4987836;28;20489;-71
2022/04/26 19:51:50;;;;;;;;;;;;;;;;;;5001958;28;19987;-70
2022/04/26 19:54:16;;;;;;;;;;;;;;;;;;5007597;28;20438;-70
2022/04/26 19:56:44;;;;;;;;;;;;;;;;;;5003541;28;19977;-71
2022/04/26 19:59:10;;;;;;;;;;;;;;;;;;5006603;28;20002;-70
2022/04/26 20:01:37;;;;;;;;;;;;;;;;;;5001583;28;19917;-70
2022/04/26 20:04:02;;;;;;;;;;;;;;;;;;5004104;28;20406;-70
2022/04/26 20:06:29;;;;;;;;;;;;;;;;;;4979986;28;20466;-70
2022/04/26 20:08:54;;;;;;;;;;;;;;;;;;5003010;28;19937;-70
2022/04/26 20:11:20;;;;;;;;;;;;;;;;;;4987713;28;20478;-70
2022/04/26 20:13:47;;;;;;;;;;;;;;;;;;4983110;28;20683;-70
2022/04/26 20:16:16;;;;;;;;;;;;;;;;;;5004276;28;20440;-70
2022/04/26 20:18:42;;;;;;;;;;;;;;;;;;4976606;28;19920;-70
2022/04/26 20:21:08;;;;;;;;;;;;;;;;;;4992317;28;19917;-70
2022/04/26 20:23:34;;;;;;;;;;;;;;;;;;5002929;28;20395;-70
2022/04/26 20:31:30;;;;;;;;;;;;;;;;;;5006617;28;20408;-70
2022/04/26 20:33:56;;;;;;;;;;;;;;;;;;4984413;28;19971;-70
2022/04/26 20:36:22;;;;;;;;;;;;;;;;;;4987307;28;20027;-70
2022/04/26 20:38:49;;;;;;;;;;;;;;;;;;4984549;28;19952;-69
2022/04/26 20:41:15;;;;;;;;;;;;;;;;;;4996020;28;19913;-69
2022/04/26 20:43:41;;;;;;;;;;;;;;;;;;4986858;28;19913;-69
2022/04/26 20:46:08;;;;;;;;;;;;;;;;;;4990570;28;19919;-70
2022/04/26 20:48:34;;;;;;;;;;;;;;;;;;5005747;28;20232;-69
2022/04/26 20:51:01;;;;;;;;;;;;;;;;;;5004509;28;19948;-68
2022/04/26 20:53:27;;;;;;;;;;;;;;;;;;5002494;28;19986;-71
2022/04/26 20:55:53;;;;;;;;;;;;;;;;;;4982888;28;19925;-70
2022/04/26 20:58:19;;;;;;;;;;;;;;;;;;4988484;28;19929;-69
2022/04/26 21:00:45;;;;;;;;;;;;;;;;;;4982983;28;19917;-68
2022/04/26 21:03:11;;;;;;;;;;;;;;;;;;5007245;28;21554;-68
2022/04/26 21:05:38;;;;;;;;;;;;;;;;;;4984185;28;19920;-69
2022/04/26 21:08:04;;;;;;;;;;;;;;;;;;5007837;28;19916;-69
2022/04/26 21:10:30;;;;;;;;;;;;;;;;;;5001106;28;19931;-69
2022/04/26 21:15:41;;;;;;;;;;;;;;;;;;5004323;28;19923;-69
2022/04/26 21:18:07;;;;;;;;;;;;;;;;;;5008649;28;19939;-69
2022/04/26 21:20:33;;;;;;;;;;;;;;;;;;5001856;28;19917;-69
2022/04/26 21:22:59;;;;;;;;;;;;;;;;;;5006835;28;20397;-69
2022/04/26 21:25:28;;;;;;;;;;;;;;;;;;4987456;28;19913;-70